createdAt,value
2023-03-22T00:00:22.363Z,64.43
2023-03-22T00:01:22.369Z,64.05
2023-03-22T00:02:22.407Z,64.34
2023-03-22T00:03:22.474Z,64.05
2023-03-22T00:04:22.362Z,64.25
2023-03-22T00:05:22.368Z,64.25
2023-03-22T00:06:22.351Z,64.34
2023-03-22T00:07:22.336Z,64.25
2023-03-22T00:08:22.348Z,64.34
2023-03-22T00:09:22.341Z,64.25
2023-03-22T00:10:22.332Z,64.25
2023-03-22T00:11:22.338Z,64.34
2023-03-22T00:12:22.321Z,64.15
2023-03-22T00:13:22.326Z,64.15
2023-03-22T00:14:22.334Z,64.15
2023-03-22T00:15:22.314Z,64.25
2023-03-22T00:16:22.424Z,64.05
2023-03-22T00:17:22.326Z,63.76
2023-03-22T00:18:22.305Z,64.53
2023-03-22T00:19:22.300Z,63.67
2023-03-22T00:20:22.313Z,64.34
2023-03-22T00:21:22.339Z,64.15
2023-03-22T00:22:22.287Z,64.15
2023-03-22T00:23:22.287Z,64.25
2023-03-22T00:24:22.279Z,64.15
2023-03-22T00:25:22.290Z,64.15
2023-03-22T00:26:22.280Z,64.25
2023-03-22T00:27:22.306Z,63.96
2023-03-22T00:28:22.276Z,64.25
2023-03-22T00:29:22.268Z,63.96
2023-03-22T00:30:22.266Z,63.86
2023-03-22T00:31:22.317Z,64.34
2023-03-22T00:32:22.267Z,64.05
2023-03-22T00:33:22.263Z,64.05
2023-03-22T00:34:22.254Z,63.86
2023-03-22T00:35:22.300Z,64.15
2023-03-22T00:36:22.256Z,63.96
2023-03-22T00:37:22.289Z,63.96
2023-03-22T00:38:32.559Z,63.96
2023-03-22T00:39:22.234Z,63.48
2023-03-22T00:40:22.223Z,63.57
2023-03-22T00:41:22.263Z,63.57
2023-03-22T00:42:22.241Z,63.48
2023-03-22T00:43:22.240Z,63.86
2023-03-22T00:44:22.233Z,63.67
2023-03-22T00:45:22.228Z,63.86
2023-03-22T00:46:22.345Z,63.67
2023-03-22T00:47:22.207Z,63.67
2023-03-22T00:48:22.275Z,63.57
2023-03-22T00:49:22.215Z,63.48
2023-03-22T00:50:22.196Z,63.57
2023-03-22T00:51:22.218Z,63.57
2023-03-22T00:52:22.186Z,63.57
2023-03-22T00:53:22.209Z,63.86
2023-03-22T00:54:22.187Z,63.86
2023-03-22T00:55:22.210Z,63.86
2023-03-22T00:56:22.196Z,63.76
2023-03-22T00:57:22.176Z,63.86
2023-03-22T00:58:22.169Z,63.67
2023-03-22T00:59:22.178Z,63.67
2023-03-22T01:00:22.157Z,63.67
2023-03-22T01:01:22.222Z,64.05
2023-03-22T01:02:22.170Z,63.67
2023-03-22T01:03:22.284Z,63.76
2023-03-22T01:04:22.166Z,63.96
2023-03-22T01:05:22.183Z,63.96
2023-03-22T01:06:22.164Z,63.96
2023-03-22T01:07:22.159Z,63.86
2023-03-22T01:08:22.131Z,63.86
2023-03-22T01:09:22.164Z,63.76
2023-03-22T01:10:22.131Z,63.76
2023-03-22T01:11:22.170Z,63.76
2023-03-22T01:12:22.141Z,63.57
2023-03-22T01:13:22.123Z,63.57
2023-03-22T01:14:22.125Z,63.38
2023-03-22T01:15:22.133Z,63.48
2023-03-22T01:16:22.148Z,63.48
2023-03-22T01:17:22.109Z,63.38
2023-03-22T01:18:22.104Z,63.48
2023-03-22T01:19:22.100Z,63.57
2023-03-22T01:20:22.097Z,63.48
2023-03-22T01:21:22.091Z,63.48
2023-03-22T01:22:22.081Z,63.28
2023-03-22T01:23:22.111Z,63.38
2023-03-22T01:24:22.096Z,63.38
2023-03-22T01:25:22.096Z,63.38
2023-03-22T01:26:22.078Z,63.28
2023-03-22T01:27:22.101Z,63.48
2023-03-22T01:28:22.117Z,63.48
2023-03-22T01:29:22.072Z,63.48
2023-03-22T01:30:22.087Z,63.38
2023-03-22T01:31:22.133Z,63.67
2023-03-22T01:32:22.066Z,63.38
2023-03-22T01:33:22.063Z,63.38
2023-03-22T01:34:22.068Z,63.38
2023-03-22T01:35:22.120Z,63.48
2023-03-22T01:36:22.057Z,63.57
2023-03-22T01:37:22.060Z,63.57
2023-03-22T01:38:22.055Z,63.48
2023-03-22T01:39:22.046Z,63.57
2023-03-22T01:40:22.055Z,63.48
2023-03-22T01:41:22.067Z,63.48
2023-03-22T01:42:22.038Z,63.57
2023-03-22T01:43:22.021Z,63.48
2023-03-22T01:44:22.028Z,63.57
2023-03-22T01:45:22.006Z,63.57
2023-03-22T01:46:22.056Z,63.57
2023-03-22T01:47:22.014Z,63.57
2023-03-22T01:48:22.107Z,63.57
2023-03-22T01:49:22.116Z,63.57
2023-03-22T01:50:22.022Z,63.57
2023-03-22T01:51:22.004Z,63.76
2023-03-22T01:52:21.994Z,63.76
2023-03-22T01:53:22.001Z,63.57
2023-03-22T01:54:21.981Z,63.48
2023-03-22T01:55:21.979Z,63.48
2023-03-22T01:56:21.996Z,63.48
2023-03-22T01:57:21.994Z,63.57
2023-03-22T01:58:21.994Z,63.48
2023-03-22T01:59:22.021Z,63.86
2023-03-22T02:00:21.976Z,63.57
2023-03-22T02:01:21.988Z,63.76
2023-03-22T02:02:22.018Z,63.76
2023-03-22T02:03:21.970Z,63.54
2023-03-22T02:04:21.963Z,63.67
2023-03-22T02:05:21.958Z,63.67
2023-03-22T02:06:21.962Z,63.57
2023-03-22T02:07:21.955Z,63.76
2023-03-22T02:08:21.966Z,63.76
2023-03-22T02:09:22.051Z,63.09
2023-03-22T02:10:21.954Z,63.25
2023-03-22T02:11:21.950Z,63.28
2023-03-22T02:12:21.934Z,63.09
2023-03-22T02:13:21.937Z,63.28
2023-03-22T02:14:23.377Z,62.99
2023-03-22T02:15:21.981Z,63.28
2023-03-22T02:16:21.927Z,63.25
2023-03-22T02:17:21.913Z,63.28
2023-03-22T02:18:21.922Z,63.16
2023-03-22T02:19:21.907Z,63.19
2023-03-22T02:20:21.896Z,63.19
2023-03-22T02:21:21.899Z,63.28
2023-03-22T02:22:21.908Z,63.38
2023-03-22T02:23:21.884Z,63.35
2023-03-22T02:24:21.880Z,63.28
2023-03-22T02:25:21.893Z,63.35
2023-03-22T02:26:21.879Z,63.19
2023-03-22T02:27:21.867Z,63.19
2023-03-22T02:28:21.875Z,63.19
2023-03-22T02:29:21.886Z,63.09
2023-03-22T02:30:21.878Z,63.38
2023-03-22T02:31:21.945Z,63.16
2023-03-22T02:32:21.884Z,63.16
2023-03-22T02:33:21.847Z,63.25
2023-03-22T02:34:21.848Z,63.19
2023-03-22T02:35:21.868Z,63.16
2023-03-22T02:36:21.844Z,63.16
2023-03-22T02:37:21.843Z,63.48
2023-03-22T02:38:21.855Z,63.06
2023-03-22T02:39:21.838Z,63.38
2023-03-22T02:40:21.837Z,63.16
2023-03-22T02:41:21.825Z,63.25
2023-03-22T02:42:21.831Z,63.35
2023-03-22T02:43:21.810Z,63.16
2023-03-22T02:44:21.813Z,63.16
2023-03-22T02:45:21.827Z,63.35
2023-03-22T02:46:21.884Z,62.96
2023-03-22T02:47:21.825Z,63.06
2023-03-22T02:48:21.831Z,63.25
2023-03-22T02:49:21.792Z,63.35
2023-03-22T02:50:21.797Z,63.06
2023-03-22T02:51:21.806Z,63.06
2023-03-22T02:52:21.786Z,62.96
2023-03-22T02:53:21.791Z,62.96
2023-03-22T02:54:21.779Z,63.06
2023-03-22T02:55:21.795Z,63.25
2023-03-22T02:56:21.824Z,62.96
2023-03-22T02:57:21.786Z,63.16
2023-03-22T02:58:21.778Z,63.06
2023-03-22T02:59:21.775Z,62.77
2023-03-22T03:00:21.779Z,63.06
2023-03-22T03:01:21.808Z,63.16
2023-03-22T03:02:21.845Z,62.96
2023-03-22T03:03:21.741Z,62.87
2023-03-22T03:04:21.760Z,63.16
2023-03-22T03:05:21.743Z,63.06
2023-03-22T03:06:21.771Z,63.16
2023-03-22T03:07:21.768Z,63.06
2023-03-22T03:08:21.731Z,62.96
2023-03-22T03:09:21.745Z,62.77
2023-03-22T03:10:21.745Z,62.96
2023-03-22T03:11:21.721Z,63.06
2023-03-22T03:12:21.746Z,62.96
2023-03-22T03:13:21.721Z,62.77
2023-03-22T03:14:21.710Z,63.06
2023-03-22T03:15:21.731Z,63.25
2023-03-22T03:16:21.793Z,62.96
2023-03-22T03:17:21.733Z,63.25
2023-03-22T03:18:21.713Z,63.25
2023-03-22T03:19:21.716Z,63.25
2023-03-22T03:20:21.712Z,63.35
2023-03-22T03:21:21.708Z,63.25
2023-03-22T03:22:21.696Z,63.25
2023-03-22T03:23:21.693Z,63.25
2023-03-22T03:24:21.678Z,63.25
2023-03-22T03:25:21.678Z,62.77
2023-03-22T03:26:21.675Z,63.25
2023-03-22T03:27:21.694Z,63.25
2023-03-22T03:28:21.677Z,63.16
2023-03-22T03:29:21.678Z,63.25
2023-03-22T03:30:21.679Z,63.16
2023-03-22T03:31:21.706Z,63.16
2023-03-22T03:32:21.648Z,62.77
2023-03-22T03:33:21.679Z,62.96
2023-03-22T03:34:21.655Z,62.77
2023-03-22T03:35:21.755Z,63.06
2023-03-22T03:36:21.651Z,63.25
2023-03-22T03:37:21.634Z,63.06
2023-03-22T03:38:21.630Z,63.25
2023-03-22T03:39:21.625Z,63.06
2023-03-22T03:40:21.638Z,63.16
2023-03-22T03:41:21.629Z,63.06
2023-03-22T03:42:21.616Z,63.16
2023-03-22T03:43:21.624Z,62.96
2023-03-22T03:44:21.615Z,63.16
2023-03-22T03:45:21.601Z,63.06
2023-03-22T03:46:21.601Z,62.96
2023-03-22T03:47:21.593Z,62.96
2023-03-22T03:48:21.721Z,62.96
2023-03-22T03:49:21.609Z,63.06
2023-03-22T03:50:21.593Z,62.96
2023-03-22T03:51:21.593Z,62.77
2023-03-22T03:52:21.580Z,62.77
2023-03-22T03:53:21.591Z,62.96
2023-03-22T03:54:21.573Z,62.87
2023-03-22T03:55:21.581Z,62.77
2023-03-22T03:56:21.619Z,62.87
2023-03-22T03:57:21.564Z,62.87
2023-03-22T03:58:21.617Z,62.77
2023-03-22T03:59:21.568Z,62.77
2023-03-22T04:00:21.612Z,62.87
2023-03-22T04:01:21.557Z,62.77
2023-03-22T04:02:21.593Z,62.77
2023-03-22T04:03:21.540Z,62.87
2023-03-22T04:04:21.588Z,63.06
2023-03-22T04:05:21.565Z,62.77
2023-03-22T04:06:21.540Z,62.68
2023-03-22T04:07:21.540Z,62.58
2023-03-22T04:08:21.533Z,62.68
2023-03-22T04:09:21.519Z,62.96
2023-03-22T04:10:21.536Z,62.77
2023-03-22T04:11:21.526Z,62.77
2023-03-22T04:12:21.523Z,62.68
2023-03-22T04:13:21.611Z,62.77
2023-03-22T04:14:21.504Z,62.68
2023-03-22T04:15:21.512Z,62.29
2023-03-22T04:16:21.542Z,62.68
2023-03-22T04:17:21.500Z,62.68
2023-03-22T04:18:21.492Z,62.77
2023-03-22T04:19:21.500Z,62.68
2023-03-22T04:20:21.492Z,62.29
2023-03-22T04:21:21.516Z,62.68
2023-03-22T04:22:21.495Z,62.39
2023-03-22T04:23:21.482Z,62.29
2023-03-22T04:24:21.503Z,62.68
2023-03-22T04:25:21.483Z,62.48
2023-03-22T04:26:21.470Z,62.68
2023-03-22T04:27:21.474Z,62.29
2023-03-22T04:28:21.472Z,62.29
2023-03-22T04:29:21.462Z,62.68
2023-03-22T04:30:21.462Z,62.39
2023-03-22T04:31:21.486Z,62.96
2023-03-22T04:32:21.451Z,62.29
2023-03-22T04:33:21.452Z,62.39
2023-03-22T04:34:21.446Z,62.68
2023-03-22T04:35:21.481Z,62.68
2023-03-22T04:36:21.449Z,62.29
2023-03-22T04:37:21.439Z,62.39
2023-03-22T04:38:21.431Z,62.68
2023-03-22T04:39:21.425Z,62.29
2023-03-22T04:40:21.426Z,62.48
2023-03-22T04:41:21.425Z,62.48
2023-03-22T04:42:21.488Z,62.39
2023-03-22T04:43:21.414Z,62.77
2023-03-22T04:44:21.432Z,62.48
2023-03-22T04:45:21.491Z,62.29
2023-03-22T04:46:21.598Z,62.39
2023-03-22T04:47:21.419Z,62.39
2023-03-22T04:48:21.446Z,62.48
2023-03-22T04:49:21.451Z,62.29
2023-03-22T04:50:21.378Z,62.87
2023-03-22T04:51:21.376Z,62.29
2023-03-22T04:52:21.381Z,62.96
2023-03-22T04:53:21.388Z,62.29
2023-03-22T04:54:21.371Z,62.29
2023-03-22T04:55:21.371Z,62.58
2023-03-22T04:56:21.378Z,62.58
2023-03-22T04:57:21.344Z,62.29
2023-03-22T04:58:21.361Z,62.29
2023-03-22T04:59:21.340Z,62.68
2023-03-22T05:00:21.365Z,62.58
2023-03-22T05:01:21.400Z,62.58
2023-03-22T05:02:21.415Z,62.58
2023-03-22T05:03:21.342Z,62.39
2023-03-22T05:04:21.332Z,62.39
2023-03-22T05:05:21.333Z,62.58
2023-03-22T05:06:21.318Z,62.39
2023-03-22T05:07:21.334Z,62.39
2023-03-22T05:08:21.316Z,62.48
2023-03-22T05:09:23.334Z,62.48
2023-03-22T05:10:21.307Z,62.39
2023-03-22T05:11:21.312Z,62.39
2023-03-22T05:12:21.305Z,62.58
2023-03-22T05:13:21.293Z,62.58
2023-03-22T05:14:21.368Z,62.87
2023-03-22T05:15:21.291Z,62.39
2023-03-22T05:16:21.303Z,62.39
2023-03-22T05:17:21.301Z,62.58
2023-03-22T05:18:21.279Z,62.77
2023-03-22T05:19:21.281Z,62.48
2023-03-22T05:20:21.296Z,62.68
2023-03-22T05:21:21.275Z,62.68
2023-03-22T05:22:21.262Z,62.68
2023-03-22T05:23:21.267Z,62.77
2023-03-22T05:24:21.262Z,62.68
2023-03-22T05:25:21.272Z,62.48
2023-03-22T05:26:21.251Z,62.68
2023-03-22T05:27:21.239Z,62.77
2023-03-22T05:28:21.247Z,62.48
2023-03-22T05:29:21.259Z,62.58
2023-03-22T05:30:21.241Z,62.58
2023-03-22T05:31:21.295Z,62.58
2023-03-22T05:32:21.242Z,62.48
2023-03-22T05:33:21.235Z,62.58
2023-03-22T05:34:21.224Z,62.68
2023-03-22T05:35:21.253Z,62.48
2023-03-22T05:36:21.215Z,62.58
2023-03-22T05:37:21.216Z,62.68
2023-03-22T05:38:21.227Z,62.58
2023-03-22T05:39:21.220Z,62.68
2023-03-22T05:40:21.197Z,62.77
2023-03-22T05:41:21.234Z,62.68
2023-03-22T05:42:21.190Z,62.77
2023-03-22T05:43:21.195Z,62.77
2023-03-22T05:44:21.180Z,62.77
2023-03-22T05:45:21.221Z,62.77
2023-03-22T05:46:21.201Z,62.77
2023-03-22T05:47:21.200Z,62.87
2023-03-22T05:48:21.338Z,62.58
2023-03-22T05:49:21.189Z,62.87
2023-03-22T05:50:21.168Z,62.29
2023-03-22T05:51:21.174Z,62.29
2023-03-22T05:52:21.163Z,62.48
2023-03-22T05:53:21.157Z,62.10
2023-03-22T05:54:21.154Z,62.19
2023-03-22T05:55:21.154Z,62.48
2023-03-22T05:56:21.159Z,62.04
2023-03-22T05:57:21.229Z,62.13
2023-03-22T05:58:21.156Z,61.94
2023-03-22T05:59:21.150Z,61.94
2023-03-22T06:00:21.147Z,61.94
2023-03-22T06:01:21.150Z,61.84
2023-03-22T06:02:21.164Z,62.04
2023-03-22T06:03:21.213Z,61.75
2023-03-22T06:04:21.139Z,61.94
2023-03-22T06:05:21.137Z,61.94
2023-03-22T06:06:21.124Z,62.04
2023-03-22T06:07:21.136Z,61.84
2023-03-22T06:08:21.144Z,62.04
2023-03-22T06:09:21.125Z,61.84
2023-03-22T06:10:21.106Z,61.84
2023-03-22T06:11:21.111Z,61.46
2023-03-22T06:12:21.095Z,61.36
2023-03-22T06:13:21.168Z,61.65
2023-03-22T06:14:21.115Z,61.46
2023-03-22T06:15:21.110Z,61.46
2023-03-22T06:16:21.161Z,61.65
2023-03-22T06:17:21.086Z,61.36
2023-03-22T06:18:21.099Z,61.46
2023-03-22T06:19:21.095Z,61.40
2023-03-22T06:20:21.095Z,61.49
2023-03-22T06:21:21.092Z,61.36
2023-03-22T06:22:21.083Z,61.30
2023-03-22T06:23:21.094Z,61.30
2023-03-22T06:24:21.065Z,61.17
2023-03-22T06:25:21.077Z,61.20
2023-03-22T06:26:21.058Z,61.01
2023-03-22T06:27:21.059Z,61.20
2023-03-22T06:28:21.071Z,60.82
2023-03-22T06:29:21.100Z,61.30
2023-03-22T06:30:21.052Z,61.11
2023-03-22T06:31:21.110Z,61.11
2023-03-22T06:32:21.041Z,61.11
2023-03-22T06:33:21.054Z,61.30
2023-03-22T06:34:21.055Z,61.20
2023-03-22T06:35:21.074Z,61.20
2023-03-22T06:36:21.048Z,61.20
2023-03-22T06:37:21.032Z,61.30
2023-03-22T06:38:21.036Z,61.40
2023-03-22T06:39:21.029Z,61.30
2023-03-22T06:40:21.022Z,61.30
2023-03-22T06:41:21.041Z,61.20
2023-03-22T06:42:21.028Z,61.23
2023-03-22T06:43:21.013Z,61.01
2023-03-22T06:44:21.013Z,60.85
2023-03-22T06:45:21.066Z,60.94
2023-03-22T06:46:21.129Z,60.94
2023-03-22T06:47:21.008Z,61.23
2023-03-22T06:48:21.051Z,61.23
2023-03-22T06:49:20.994Z,61.23
2023-03-22T06:50:20.993Z,61.01
2023-03-22T06:51:20.987Z,60.82
2023-03-22T06:52:20.995Z,61.04
2023-03-22T06:53:20.986Z,61.23
2023-03-22T06:54:21.001Z,61.04
2023-03-22T06:55:20.996Z,61.43
2023-03-22T06:56:20.982Z,61.52
2023-03-22T06:57:20.986Z,61.43
2023-03-22T06:58:20.983Z,61.23
2023-03-22T06:59:20.973Z,61.33
2023-03-22T07:00:20.963Z,61.04
2023-03-22T07:01:21.100Z,61.14
2023-03-22T07:02:20.975Z,61.23
2023-03-22T07:03:20.965Z,61.14
2023-03-22T07:04:21.013Z,61.43
2023-03-22T07:05:20.959Z,61.04
2023-03-22T07:06:20.962Z,61.14
2023-03-22T07:07:20.965Z,61.33
2023-03-22T07:08:20.955Z,61.43
2023-03-22T07:09:20.946Z,61.52
2023-03-22T07:10:20.953Z,61.43
2023-03-22T07:11:20.960Z,61.43
2023-03-22T07:12:20.945Z,61.81
2023-03-22T07:13:20.955Z,61.52
2023-03-22T07:14:20.945Z,61.61
2023-03-22T07:15:20.949Z,61.71
2023-03-22T07:16:21.003Z,61.43
2023-03-22T07:17:21.020Z,61.61
2023-03-22T07:18:20.934Z,61.52
2023-03-22T07:19:20.939Z,62.00
2023-03-22T07:20:20.986Z,61.91
2023-03-22T07:21:20.933Z,61.81
2023-03-22T07:22:20.924Z,61.91
2023-03-22T07:23:20.930Z,62.10
2023-03-22T07:24:20.919Z,62.10
2023-03-22T07:25:20.925Z,62.10
2023-03-22T07:26:20.901Z,62.19
2023-03-22T07:27:20.919Z,62.00
2023-03-22T07:28:20.911Z,62.10
2023-03-22T07:29:20.913Z,62.19
2023-03-22T07:30:20.896Z,61.91
2023-03-22T07:31:20.895Z,62.00
2023-03-22T07:32:20.966Z,61.71
2023-03-22T07:33:20.936Z,61.91
2023-03-22T07:34:20.897Z,62.00
2023-03-22T07:35:20.920Z,61.97
2023-03-22T07:36:20.877Z,62.10
2023-03-22T07:37:20.909Z,62.10
2023-03-22T07:38:20.888Z,61.97
2023-03-22T07:39:20.890Z,61.91
2023-03-22T07:40:20.872Z,62.58
2023-03-22T07:41:20.886Z,62.58
2023-03-22T07:42:20.868Z,62.58
2023-03-22T07:43:20.869Z,62.19
2023-03-22T07:44:20.878Z,62.38
2023-03-22T07:45:20.924Z,62.29
2023-03-22T07:46:20.869Z,62.26
2023-03-22T07:47:37.729Z,62.35
2023-03-22T07:48:22.617Z,62.45
2023-03-22T07:49:20.993Z,62.48
2023-03-22T07:50:20.851Z,62.19
2023-03-22T07:51:20.870Z,62.55
2023-03-22T07:52:20.843Z,62.55
2023-03-22T07:53:20.855Z,62.48
2023-03-22T07:54:33.005Z,62.48
2023-03-22T07:55:20.871Z,62.45
2023-03-22T07:56:20.868Z,62.35
2023-03-22T07:57:20.844Z,62.93
2023-03-22T07:58:20.857Z,62.84
2023-03-22T07:59:20.832Z,62.77
2023-03-22T08:00:20.851Z,62.74
2023-03-22T08:01:20.840Z,62.84
2023-03-22T08:02:20.879Z,62.74
2023-03-22T08:03:20.832Z,62.84
2023-03-22T08:04:20.840Z,62.74
2023-03-22T08:05:20.861Z,62.74
2023-03-22T08:06:20.842Z,62.93
2023-03-22T08:07:20.818Z,62.16
2023-03-22T08:08:20.820Z,62.84
2023-03-22T08:09:20.822Z,62.84
2023-03-22T08:10:20.811Z,62.84
2023-03-22T08:11:20.815Z,62.64
2023-03-22T08:12:20.825Z,62.64
2023-03-22T08:13:20.807Z,62.74
2023-03-22T08:14:27.412Z,62.74
2023-03-22T08:15:22.537Z,62.77
2023-03-22T08:16:20.867Z,62.55
2023-03-22T08:17:20.814Z,62.64
2023-03-22T08:18:20.781Z,62.74
2023-03-22T08:19:20.790Z,62.74
2023-03-22T08:20:20.785Z,62.55
2023-03-22T08:21:20.822Z,62.84
2023-03-22T08:22:20.791Z,62.55
2023-03-22T08:23:28.807Z,62.45
2023-03-22T08:24:20.766Z,62.64
2023-03-22T08:25:20.766Z,62.55
2023-03-22T08:26:20.786Z,62.84
2023-03-22T08:27:20.779Z,62.55
2023-03-22T08:28:20.772Z,62.55
2023-03-22T08:29:20.766Z,62.35
2023-03-22T08:30:20.791Z,62.64
2023-03-22T08:31:20.829Z,62.35
2023-03-22T08:32:20.779Z,62.35
2023-03-22T08:33:20.757Z,62.45
2023-03-22T08:34:20.758Z,62.45
2023-03-22T08:35:20.776Z,62.64
2023-03-22T08:36:20.864Z,62.55
2023-03-22T08:37:20.772Z,62.84
2023-03-22T08:38:20.749Z,62.35
2023-03-22T08:39:20.730Z,62.64
2023-03-22T08:40:20.783Z,62.84
2023-03-22T08:41:20.728Z,62.93
2023-03-22T08:42:20.736Z,62.84
2023-03-22T08:43:20.745Z,62.84
2023-03-22T08:44:20.719Z,63.12
2023-03-22T08:45:20.726Z,62.93
2023-03-22T08:46:20.770Z,62.64
2023-03-22T08:47:20.726Z,62.84
2023-03-22T08:48:20.926Z,63.02
2023-03-22T08:49:20.713Z,63.12
2023-03-22T08:50:20.693Z,63.12
2023-03-22T08:51:20.725Z,63.12
2023-03-22T08:52:20.687Z,63.22
2023-03-22T08:53:20.719Z,63.02
2023-03-22T08:54:20.704Z,63.02
2023-03-22T08:55:20.696Z,63.02
2023-03-22T08:56:20.691Z,63.02
2023-03-22T08:57:20.697Z,63.02
2023-03-22T08:58:20.692Z,63.22
2023-03-22T08:59:20.704Z,63.12
2023-03-22T09:00:20.702Z,63.22
2023-03-22T09:01:20.764Z,63.22
2023-03-22T09:02:20.874Z,63.22
2023-03-22T09:03:20.692Z,62.93
2023-03-22T09:04:20.692Z,63.32
2023-03-22T09:05:20.670Z,62.84
2023-03-22T09:06:20.650Z,63.02
2023-03-22T09:07:20.654Z,62.93
2023-03-22T09:08:20.662Z,63.02
2023-03-22T09:09:20.680Z,62.84
2023-03-22T09:10:20.665Z,63.22
2023-03-22T09:11:20.650Z,63.02
2023-03-22T09:12:20.651Z,63.02
2023-03-22T09:13:20.649Z,62.93
2023-03-22T09:14:20.635Z,62.93
2023-03-22T09:15:20.637Z,62.84
2023-03-22T09:16:20.736Z,63.32
2023-03-22T09:17:22.397Z,63.22
2023-03-22T09:18:20.628Z,63.32
2023-03-22T09:19:20.642Z,63.32
2023-03-22T09:20:36.656Z,63.32
2023-03-22T09:21:20.640Z,63.32
2023-03-22T09:22:20.634Z,63.41
2023-03-22T09:23:20.613Z,63.12
2023-03-22T09:24:20.612Z,63.22
2023-03-22T09:25:20.633Z,63.02
2023-03-22T09:26:20.620Z,63.02
2023-03-22T09:27:20.600Z,62.74
2023-03-22T09:28:20.644Z,63.12
2023-03-22T09:29:20.608Z,63.12
2023-03-22T09:30:20.589Z,63.02
2023-03-22T09:31:21.002Z,63.02
2023-03-22T09:32:20.586Z,63.12
2023-03-22T09:33:20.584Z,63.12
2023-03-22T09:34:20.588Z,63.22
2023-03-22T09:35:20.612Z,63.12
2023-03-22T09:36:20.576Z,63.12
2023-03-22T09:37:20.592Z,63.12
2023-03-22T09:38:20.592Z,62.93
2023-03-22T09:39:20.580Z,63.22
2023-03-22T09:40:20.564Z,63.22
2023-03-22T09:41:20.594Z,63.22
2023-03-22T09:42:20.571Z,63.02
2023-03-22T09:43:20.644Z,62.55
2023-03-22T09:44:20.567Z,63.02
2023-03-22T09:45:20.565Z,62.93
2023-03-22T09:46:20.660Z,63.22
2023-03-22T09:47:20.546Z,63.12
2023-03-22T09:48:20.598Z,63.12
2023-03-22T09:49:20.561Z,63.12
2023-03-22T09:50:20.558Z,62.93
2023-03-22T09:51:20.549Z,63.02
2023-03-22T09:52:20.682Z,63.02
2023-03-22T09:53:20.551Z,63.02
2023-03-22T09:54:20.531Z,63.12
2023-03-22T09:55:20.536Z,63.32
2023-03-22T09:56:20.535Z,62.93
2023-03-22T09:57:20.544Z,63.41
2023-03-22T09:58:20.568Z,63.22
2023-03-22T09:59:20.523Z,63.32
2023-03-22T10:00:20.607Z,63.32
2023-03-22T10:01:21.161Z,63.41
2023-03-22T10:02:20.653Z,63.41
2023-03-22T10:03:20.518Z,63.41
2023-03-22T10:04:20.535Z,63.22
2023-03-22T10:05:20.495Z,63.41
2023-03-22T10:06:20.493Z,63.22
2023-03-22T10:07:20.515Z,63.41
2023-03-22T10:08:20.501Z,63.51
2023-03-22T10:09:20.506Z,63.32
2023-03-22T10:10:20.579Z,63.32
2023-03-22T10:11:20.488Z,63.32
2023-03-22T10:12:20.501Z,63.41
2023-03-22T10:13:20.508Z,63.41
2023-03-22T10:14:20.493Z,63.51
2023-03-22T10:15:20.504Z,63.51
2023-03-22T10:16:20.631Z,63.22
2023-03-22T10:17:20.476Z,63.22
2023-03-22T10:18:20.483Z,63.51
2023-03-22T10:19:20.467Z,63.22
2023-03-22T10:20:20.540Z,63.41
2023-03-22T10:21:20.489Z,63.51
2023-03-22T10:22:20.458Z,63.41
2023-03-22T10:23:20.461Z,63.12
2023-03-22T10:24:20.451Z,63.22
2023-03-22T10:25:20.470Z,63.22
2023-03-22T10:26:20.468Z,63.32
2023-03-22T10:27:20.441Z,63.22
2023-03-22T10:28:20.450Z,63.02
2023-03-22T10:29:20.461Z,63.22
2023-03-22T10:30:20.512Z,63.22
2023-03-22T10:31:20.500Z,63.22
2023-03-22T10:32:20.442Z,63.41
2023-03-22T10:33:20.433Z,63.32
2023-03-22T10:34:20.439Z,63.22
2023-03-22T10:35:20.461Z,63.32
2023-03-22T10:36:20.446Z,63.41
2023-03-22T10:37:20.462Z,63.41
2023-03-22T10:38:20.412Z,63.51
2023-03-22T10:39:20.420Z,63.41
2023-03-22T10:40:20.422Z,63.32
2023-03-22T10:41:20.405Z,63.32
2023-03-22T10:42:20.426Z,63.02
2023-03-22T10:43:20.424Z,63.32
2023-03-22T10:44:20.394Z,63.32
2023-03-22T10:45:20.424Z,63.22
2023-03-22T10:46:20.464Z,63.51
2023-03-22T10:47:20.417Z,63.51
2023-03-22T10:48:20.454Z,63.12
2023-03-22T10:49:20.379Z,63.60
2023-03-22T10:50:20.408Z,63.70
2023-03-22T10:51:20.393Z,63.70
2023-03-22T10:52:20.389Z,63.60
2023-03-22T10:53:20.399Z,63.89
2023-03-22T10:54:20.391Z,63.89
2023-03-22T10:55:20.369Z,63.79
2023-03-22T10:56:20.390Z,63.51
2023-03-22T10:57:20.386Z,63.51
2023-03-22T10:58:20.366Z,63.79
2023-03-22T10:59:20.376Z,63.60
2023-03-22T11:00:20.369Z,63.51
2023-03-22T11:01:20.547Z,63.60
2023-03-22T11:02:20.546Z,63.60
2023-03-22T11:03:20.353Z,63.51
2023-03-22T11:04:20.371Z,63.60
2023-03-22T11:05:20.344Z,63.41
2023-03-22T11:06:20.360Z,63.60
2023-03-22T11:07:20.354Z,63.41
2023-03-22T11:08:20.356Z,63.41
2023-03-22T11:09:20.354Z,63.41
2023-03-22T11:10:20.357Z,63.41
2023-03-22T11:11:20.340Z,63.51
2023-03-22T11:12:20.332Z,63.41
2023-03-22T11:13:20.326Z,63.41
2023-03-22T11:14:20.344Z,63.32
2023-03-22T11:15:20.324Z,63.60
2023-03-22T11:16:20.401Z,63.32
2023-03-22T11:17:20.353Z,63.51
2023-03-22T11:18:20.315Z,63.60
2023-03-22T11:19:20.314Z,63.41
2023-03-22T11:20:20.397Z,63.41
2023-03-22T11:21:20.319Z,63.41
2023-03-22T11:22:20.305Z,63.51
2023-03-22T11:23:20.315Z,63.51
2023-03-22T11:24:20.314Z,63.41
2023-03-22T11:25:20.311Z,63.51
2023-03-22T11:26:20.325Z,63.51
2023-03-22T11:27:20.299Z,63.51
2023-03-22T11:28:20.306Z,63.41
2023-03-22T11:29:20.304Z,63.60
2023-03-22T11:30:20.299Z,63.51
2023-03-22T11:31:20.336Z,63.60
2023-03-22T11:32:20.330Z,63.51
2023-03-22T11:33:20.296Z,63.51
2023-03-22T11:34:20.302Z,63.70
2023-03-22T11:35:20.349Z,63.79
2023-03-22T11:36:20.267Z,63.79
2023-03-22T11:37:20.272Z,63.79
2023-03-22T11:38:20.279Z,63.89
2023-03-22T11:39:20.279Z,63.70
2023-03-22T11:40:20.270Z,63.70
2023-03-22T11:41:20.252Z,63.60
2023-03-22T11:42:20.256Z,63.70
2023-03-22T11:43:20.242Z,63.70
2023-03-22T11:44:20.262Z,63.79
2023-03-22T11:45:20.301Z,63.60
2023-03-22T11:46:20.321Z,63.70
2023-03-22T11:47:20.247Z,63.79
2023-03-22T11:48:20.383Z,63.89
2023-03-22T11:49:20.270Z,63.89
2023-03-22T11:50:20.244Z,63.89
2023-03-22T11:51:20.235Z,63.70
2023-03-22T11:52:20.249Z,63.70
2023-03-22T11:53:20.223Z,63.51
2023-03-22T11:54:20.239Z,63.60
2023-03-22T11:55:20.220Z,63.60
2023-03-22T11:56:20.210Z,63.60
2023-03-22T11:57:20.210Z,63.60
2023-03-22T11:58:20.539Z,63.60
2023-03-22T11:59:20.211Z,63.70
2023-03-22T12:00:20.215Z,63.89
2023-03-22T12:01:20.212Z,63.89
2023-03-22T12:02:20.346Z,63.79
2023-03-22T12:03:20.450Z,63.60
2023-03-22T12:04:20.248Z,63.60
2023-03-22T12:05:20.318Z,63.79
2023-03-22T12:06:20.225Z,63.99
2023-03-22T12:07:20.193Z,63.79
2023-03-22T12:08:20.183Z,63.79
2023-03-22T12:09:20.188Z,63.99
2023-03-22T12:10:20.185Z,63.89
2023-03-22T12:11:20.176Z,63.89
2023-03-22T12:12:20.194Z,63.79
2023-03-22T12:13:20.181Z,63.89
2023-03-22T12:14:20.187Z,63.89
2023-03-22T12:15:20.172Z,64.09
2023-03-22T12:16:20.788Z,63.89
2023-03-22T12:17:20.169Z,64.09
2023-03-22T12:18:20.231Z,63.99
2023-03-22T12:19:20.149Z,63.89
2023-03-22T12:20:20.161Z,64.18
2023-03-22T12:21:20.175Z,64.18
2023-03-22T12:22:20.158Z,64.18
2023-03-22T12:23:20.155Z,64.18
2023-03-22T12:24:20.142Z,63.99
2023-03-22T12:25:20.135Z,64.09
2023-03-22T12:26:20.133Z,63.51
2023-03-22T12:27:20.137Z,63.60
2023-03-22T12:28:20.130Z,63.89
2023-03-22T12:29:20.140Z,63.79
2023-03-22T12:30:20.132Z,63.70
2023-03-22T12:31:20.172Z,63.41
2023-03-22T12:32:20.115Z,63.32
2023-03-22T12:33:20.226Z,63.41
2023-03-22T12:34:20.149Z,63.60
2023-03-22T12:35:20.139Z,63.60
2023-03-22T12:36:20.151Z,63.51
2023-03-22T12:37:20.132Z,63.79
2023-03-22T12:38:20.106Z,63.70
2023-03-22T12:39:20.095Z,63.70
2023-03-22T12:40:20.103Z,63.51
2023-03-22T12:41:20.109Z,63.22
2023-03-22T12:42:20.099Z,63.79
2023-03-22T12:43:20.094Z,63.12
2023-03-22T12:44:20.098Z,63.70
2023-03-22T12:45:20.104Z,63.32
2023-03-22T12:46:20.120Z,63.32
2023-03-22T12:47:20.083Z,63.51
2023-03-22T12:48:20.238Z,63.22
2023-03-22T12:49:20.071Z,63.41
2023-03-22T12:50:20.084Z,63.32
2023-03-22T12:51:20.080Z,63.22
2023-03-22T12:52:20.056Z,63.32